Time;durP1;ratioP1;P1;durP2;ratioP2;P2;SDS_P1;SDS_P2;PMS_P1;PMS_P2;Temp;Humidity;BMP_temperature;BMP_pressure;BME280_temperature;BME280_humidity;BME280_pressure;Samples;Min_cycle;Max_cycle;Signal;HPM_P1;HPM_P2
2021/05/29 00:01:22;;;;;;;7.03;5.78;;;;;;;15.09;51.51;102379.00;4932856;28;119834;-70
2021/05/29 00:03:49;;;;;;;6.38;5.35;;;;;;;15.10;51.49;102378.03;4944454;28;124029;-69
2021/05/29 00:06:16;;;;;;;8.25;6.05;;;;;;;15.10;51.64;102380.72;4946544;28;124208;-69
2021/05/29 00:08:44;;;;;;;8.20;5.97;;;;;;;15.09;51.73;102379.00;4940370;28;119529;-69
2021/05/29 00:11:11;;;;;;;9.13;6.25;;;;;;;15.09;51.83;102376.31;4942435;28;119476;-69
2021/05/29 00:13:40;;;;;;;8.50;6.20;;;;;;;15.08;51.88;102374.56;4944696;28;124846;-69
2021/05/29 00:16:09;;;;;;;10.23;5.93;;;;;;;15.09;52.00;102379.00;4947406;28;124652;-69
2021/05/29 00:18:38;;;;;;;8.75;6.03;;;;;;;15.09;52.22;102376.31;4946515;28;119608;-69
2021/05/29 00:21:06;;;;;;;10.20;6.47;;;;;;;15.10;52.07;102370.03;4946536;28;119155;-69
2021/05/29 00:23:34;;;;;;;7.32;6.03;;;;;;;15.11;52.19;102371.78;4937953;28;123984;-69
2021/05/29 00:26:02;;;;;;;6.80;5.40;;;;;;;15.13;52.10;102372.59;4940153;28;123194;-69
2021/05/29 00:28:29;;;;;;;10.68;5.90;;;;;;;15.13;52.11;102370.78;4935617;28;119816;-69
2021/05/29 00:30:56;;;;;;;7.03;5.85;;;;;;;15.14;52.15;102369.88;4940360;28;119145;-69
2021/05/29 00:33:23;;;;;;;8.13;5.75;;;;;;;15.15;52.28;102376.06;4957800;28;124452;-69
2021/05/29 00:35:50;;;;;;;6.93;5.72;;;;;;;15.15;52.14;102381.41;4941226;28;124067;-69
2021/05/29 00:38:17;;;;;;;6.55;5.70;;;;;;;15.17;52.26;102368.88;4924420;28;118826;-69
2021/05/29 00:40:44;;;;;;;10.20;6.07;;;;;;;15.17;52.16;102368.88;4943849;28;119043;-69
2021/05/29 00:43:11;;;;;;;8.88;6.30;;;;;;;15.18;52.29;102367.94;4942730;28;123867;-69
2021/05/29 00:45:38;;;;;;;8.07;6.00;;;;;;;15.17;52.29;102369.72;4935623;28;123553;-69
2021/05/29 00:48:06;;;;;;;8.68;6.38;;;;;;;15.16;52.47;102372.47;4941007;28;120030;-69
2021/05/29 00:50:47;;;;;;;10.30;6.70;;;;;;;15.15;52.53;102376.06;4938517;28;120577;-69
2021/05/29 00:53:16;;;;;;;8.07;6.22;;;;;;;15.15;52.49;102376.06;4942260;28;123371;-69
2021/05/29 00:55:44;;;;;;;7.95;6.22;;;;;;;15.14;52.87;102383.22;4957312;28;124273;-69
2021/05/29 00:58:12;;;;;;;9.20;6.57;;;;;;;15.13;52.67;102372.59;4934373;28;119408;-69
2021/05/29 01:00:39;;;;;;;10.55;6.47;;;;;;;15.12;52.74;102370.84;4925955;28;117400;-69
2021/05/29 01:03:06;;;;;;;8.05;6.40;;;;;;;15.12;52.59;102370.84;4933652;28;123014;-69
2021/05/29 01:05:33;;;;;;;9.35;6.68;;;;;;;15.11;52.83;102374.47;4926292;28;123026;-69
2021/05/29 01:08:00;;;;;;;8.95;6.80;;;;;;;15.12;52.74;102378.84;4940074;28;118710;-69
2021/05/29 01:10:27;;;;;;;9.60;6.97;;;;;;;15.11;52.79;102377.13;4941198;28;119108;-69
2021/05/29 01:12:57;;;;;;;10.23;6.70;;;;;;;15.09;52.84;102377.19;4939150;28;124257;-69
2021/05/29 01:15:25;;;;;;;8.38;6.10;;;;;;;15.09;52.83;102376.31;4948297;28;123830;-69
2021/05/29 01:17:52;;;;;;;9.95;6.40;;;;;;;15.07;52.90;102378.16;4945479;28;120487;-69
2021/05/29 01:20:19;;;;;;;9.50;6.53;;;;;;;15.05;52.93;102380.00;4969667;28;118927;-69
2021/05/29 01:22:50;;;;;;;10.20;6.95;;;;;;;15.03;53.07;102376.53;4953977;28;124240;-69
2021/05/29 01:25:28;;;;;;;10.55;6.40;;;;;;;15.01;53.15;102375.72;4950527;28;124604;-69
2021/05/29 01:28:14;;;;;;;11.35;7.03;;;;;;;14.99;53.17;102374.03;4953103;28;120163;-70
2021/05/29 01:30:49;;;;;;;9.02;6.93;;;;;;;14.96;53.08;102376.78;4939986;28;117729;-69
2021/05/29 01:33:23;;;;;;;9.75;6.47;;;;;;;14.95;53.12;102380.38;4970101;28;124436;-69
2021/05/29 01:35:52;;;;;;;9.35;6.70;;;;;;;14.95;53.05;102375.03;4945968;28;124132;-69
2021/05/29 01:38:24;;;;;;;8.82;6.68;;;;;;;14.94;53.29;102377.78;4950229;28;121385;-69
2021/05/29 01:40:51;;;;;;;10.55;7.38;;;;;;;14.92;53.16;102379.66;4951317;28;120265;-70
2021/05/29 01:43:19;;;;;;;12.07;7.25;;;;;;;14.89;53.45;102380.63;4947661;28;123410;-69
2021/05/29 01:45:46;;;;;;;9.48;6.75;;;;;;;14.84;53.03;102381.72;4952572;28;124584;-69
2021/05/29 01:48:17;;;;;;;8.75;7.43;;;;;;;14.79;53.17;102380.09;4936532;28;118570;-69
2021/05/29 01:50:49;;;;;;;11.85;7.25;;;;;;;14.77;53.35;102381.97;4967441;28;118454;-69
2021/05/29 01:53:19;;;;;;;9.95;7.28;;;;;;;14.74;53.35;102376.75;4956348;28;123362;-69
2021/05/29 01:55:47;;;;;;;7.82;6.80;;;;;;;14.74;53.33;102381.22;4948548;28;124025;-69
2021/05/29 01:58:15;;;;;;;9.18;6.70;;;;;;;14.73;53.26;102379.47;4961835;23;118794;-72
2021/05/29 02:00:43;;;;;;;10.25;7.40;;;;;;;14.72;53.30;102388.41;4951053;28;118142;-72
2021/05/29 02:03:10;;;;;;;9.15;6.78;;;;;;;14.70;53.27;102380.47;4950609;28;124133;-72
2021/05/29 02:05:38;;;;;;;10.93;7.10;;;;;;;14.67;53.40;102385.03;4951332;28;124499;-72
2021/05/29 02:08:07;;;;;;;11.07;7.65;;;;;;;14.65;53.38;102381.56;4951661;28;119356;-71
2021/05/29 02:10:37;;;;;;;8.43;6.82;;;;;;;14.62;53.31;102381.66;4951596;28;119272;-72
2021/05/29 02:13:08;;;;;;;10.93;6.88;;;;;;;14.58;53.51;102387.13;4966839;28;124116;-72
2021/05/29 02:15:38;;;;;;;13.00;7.65;;;;;;;14.56;53.63;102388.94;4950922;28;124540;-72
2021/05/29 02:18:07;;;;;;;10.18;7.78;;;;;;;14.51;53.55;102390.91;4951339;28;119670;-72
2021/05/29 02:20:49;;;;;;;9.40;7.75;;;;;;;14.48;53.70;102390.16;4951150;28;119365;-72
2021/05/29 02:23:19;;;;;;;10.10;7.13;;;;;;;14.46;53.63;102392.84;4952856;28;124835;-72
2021/05/29 02:25:48;;;;;;;11.23;7.47;;;;;;;14.46;53.62;102392.84;4949487;28;124637;-72
2021/05/29 02:28:15;;;;;;;9.38;7.22;;;;;;;14.46;53.55;102395.53;4941738;28;120109;-72
2021/05/29 02:30:43;;;;;;;12.52;7.78;;;;;;;14.43;53.60;102398.31;4948662;28;121406;-72
2021/05/29 02:33:10;;;;;;;8.80;7.13;;;;;;;14.41;53.56;102400.19;4949157;28;123180;-72
2021/05/29 02:35:38;;;;;;;9.52;7.47;;;;;;;14.38;53.62;102402.94;4949535;28;123726;-72
2021/05/29 02:38:06;;;;;;;9.43;7.40;;;;;;;14.35;53.66;102408.38;4946835;28;120042;-72
2021/05/29 02:40:33;;;;;;;12.68;8.27;;;;;;;14.31;53.76;102404.09;4947925;28;119037;-72
2021/05/29 02:43:01;;;;;;;14.57;7.93;;;;;;;14.27;53.94;102405.13;4946840;28;124120;-72
2021/05/29 02:45:28;;;;;;;10.90;8.35;;;;;;;14.21;53.92;102404.41;4949139;28;122685;-72
2021/05/29 02:47:55;;;;;;;13.27;8.85;;;;;;;14.17;54.29;102407.25;4949285;28;120312;-72
2021/05/29 02:50:23;;;;;;;12.27;9.38;;;;;;;14.14;54.52;102407.34;4947517;28;118818;-72
2021/05/29 02:52:51;;;;;;;13.43;9.68;;;;;;;14.11;54.67;102410.09;4949061;28;124149;-72
2021/05/29 02:55:23;;;;;;;12.57;8.65;;;;;;;14.08;54.94;102408.44;4946232;28;123960;-71
2021/05/29 02:57:52;;;;;;;12.55;9.20;;;;;;;14.06;54.83;102409.41;4909917;28;1133513;-71
2021/05/29 03:00:21;;;;;;;13.50;9.52;;;;;;;14.03;54.90;102410.38;4948433;28;117403;-71
2021/05/29 03:02:48;;;;;;;16.55;9.80;;;;;;;14.01;54.78;102413.13;4949039;28;125542;-72
2021/05/29 03:05:17;;;;;;;12.13;9.52;;;;;;;13.99;55.00;102414.06;4949406;28;126266;-71
2021/05/29 03:07:46;;;;;;;12.52;9.13;;;;;;;13.97;55.15;102410.59;4950528;28;119384;-71
2021/05/29 03:10:14;;;;;;;13.85;9.48;;;;;;;13.97;55.11;102402.59;4948915;28;119067;-71
2021/05/29 03:12:42;;;;;;;13.20;9.55;;;;;;;13.97;55.17;102410.59;4947803;28;124202;-71
2021/05/29 03:15:14;;;;;;;13.65;9.27;;;;;;;13.96;54.94;102404.41;4947038;28;124679;-72
2021/05/29 03:17:43;;;;;;;11.80;9.02;;;;;;;13.96;55.08;102409.72;4948212;28;120305;-72
2021/05/29 03:20:15;;;;;;;16.95;9.70;;;;;;;13.95;54.90;102407.09;4948168;28;119914;-72
2021/05/29 03:22:44;;;;;;;12.48;9.25;;;;;;;13.94;55.03;102410.72;4948999;28;124216;-72
2021/05/29 03:25:12;;;;;;;12.80;9.55;;;;;;;13.94;54.92;102410.72;4947395;28;124257;-72
2021/05/29 03:27:40;;;;;;;14.40;8.70;;;;;;;13.92;55.08;102401.88;4949315;28;119984;-72
2021/05/29 03:30:13;;;;;;;11.38;9.15;;;;;;;13.90;55.00;102403.72;4948683;28;118810;-71
2021/05/29 03:32:40;;;;;;;10.80;8.45;;;;;;;13.89;54.75;102408.19;4948359;28;124274;-72
2021/05/29 03:35:10;;;;;;;11.77;8.98;;;;;;;13.89;54.71;102407.31;4949654;28;124655;-71
2021/05/29 03:37:37;;;;;;;13.85;9.20;;;;;;;13.87;54.77;102409.19;4949641;28;120004;-72
2021/05/29 03:40:09;;;;;;;11.82;8.77;;;;;;;13.85;54.77;102411.03;4947973;28;118992;-71
2021/05/29 03:42:36;;;;;;;12.07;9.13;;;;;;;13.82;54.85;102418.19;4949812;28;124447;-71
2021/05/29 03:45:16;;;;;;;10.57;8.57;;;;;;;13.78;54.66;102416.53;4948222;28;122868;-71
2021/05/29 03:47:44;;;;;;;11.85;8.85;;;;;;;13.76;54.73;102421.03;4949713;28;119403;-72
2021/05/29 03:50:14;;;;;;;13.18;9.20;;;;;;;13.73;54.72;102429.16;4950347;28;119435;-71
2021/05/29 03:52:42;;;;;;;15.15;9.43;;;;;;;13.70;54.73;102418.59;4949939;28;125056;-71
2021/05/29 03:55:14;;;;;;;12.50;8.50;;;;;;;13.68;54.65;102415.09;4947913;28;123961;-71
2021/05/29 03:57:43;;;;;;;14.23;9.88;;;;;;;13.67;54.96;102423.13;4948108;28;119441;-71
2021/05/29 04:00:12;;;;;;;12.82;9.02;;;;;;;13.64;54.84;102424.13;4949622;28;119098;-71
2021/05/29 04:02:40;;;;;;;13.20;9.55;;;;;;;13.62;54.92;102431.28;4948967;28;124327;-71
2021/05/29 04:05:09;;;;;;;11.68;8.45;;;;;;;13.61;55.08;102429.53;4948160;28;123767;-71
2021/05/29 04:07:39;;;;;;;12.68;8.57;;;;;;;13.59;54.86;102428.72;4948916;28;120902;-71
2021/05/29 04:10:08;;;;;;;11.73;9.02;;;;;;;13.56;54.95;102436.78;4963199;28;118750;-71
2021/05/29 04:12:36;;;;;;;12.73;9.27;;;;;;;13.54;54.88;102430.66;4948350;28;124162;-71
2021/05/29 04:15:06;;;;;;;12.05;8.68;;;;;;;13.51;55.16;102433.44;4948961;28;122955;-71
2021/05/29 04:17:33;;;;;;;13.15;10.25;;;;;;;13.49;55.31;102435.28;4949327;28;119451;-71
2021/05/29 04:20:00;;;;;;;15.18;9.68;;;;;;;13.46;55.41;102435.34;4949594;28;119811;-71
2021/05/29 04:22:27;;;;;;;11.68;9.45;;;;;;;13.44;55.50;102436.25;4947608;28;124480;-71
2021/05/29 04:24:54;;;;;;;11.55;9.20;;;;;;;13.44;55.59;102438.91;4948901;28;123967;-71
2021/05/29 04:27:21;;;;;;;14.57;10.13;;;;;;;13.46;55.83;102440.69;4948671;28;119181;-71
2021/05/29 04:29:49;;;;;;;16.05;10.70;;;;;;;13.47;55.96;102442.41;4945763;28;119291;-71
2021/05/29 04:32:16;;;;;;;14.93;10.45;;;;;;;13.48;56.11;102441.50;4946825;28;124349;-71
2021/05/29 04:34:43;;;;;;;12.70;10.43;;;;;;;13.50;56.20;102444.97;4946907;28;124781;-70
2021/05/29 04:37:15;;;;;;;14.65;9.93;;;;;;;13.51;56.33;102441.41;4932036;28;118618;-70
2021/05/29 04:39:44;;;;;;;18.50;10.95;;;;;;;13.54;56.22;102449.28;4948191;28;119784;-71
2021/05/29 04:42:12;;;;;;;16.00;10.73;;;;;;;13.55;56.54;102449.25;4948613;28;124802;-71
2021/05/29 04:44:39;;;;;;;13.82;10.95;;;;;;;13.59;56.58;102453.53;4949116;28;123951;-71
2021/05/29 04:47:06;;;;;;;16.10;10.77;;;;;;;13.62;56.64;102458.78;4947051;28;119341;-71
2021/05/29 04:49:34;;;;;;;16.60;11.38;;;;;;;13.68;56.82;102465.69;4950024;28;118903;-71
2021/05/29 04:52:03;;;;;;;16.63;10.40;;;;;;;13.72;56.88;102464.66;4947030;28;124497;-70
2021/05/29 04:54:31;;;;;;;15.35;10.38;;;;;;;13.78;56.86;102469.78;4947048;28;123700;-71
2021/05/29 04:56:58;;;;;;;14.27;10.48;;;;;;;13.83;56.87;102467.84;4948947;28;119725;-71
2021/05/29 04:59:30;;;;;;;15.23;10.60;;;;;;;13.91;56.81;102464.06;4948817;28;120282;-71
2021/05/29 05:01:57;;;;;;;14.10;10.43;;;;;;;13.97;56.99;102463.88;4949549;28;124066;-71
2021/05/29 05:04:24;;;;;;;15.15;10.90;;;;;;;14.03;56.89;102474.31;4947256;28;124293;-71
2021/05/29 05:06:51;;;;;;;17.10;11.18;;;;;;;14.07;57.02;102467.97;4946588;28;119570;-71
2021/05/29 05:09:18;;;;;;;14.48;10.75;;;;;;;14.12;56.97;102478.47;4946894;28;119218;-71
2021/05/29 05:11:45;;;;;;;14.93;10.43;;;;;;;14.16;56.96;102480.97;4949243;28;124796;-71
2021/05/29 05:14:13;;;;;;;15.57;10.40;;;;;;;14.20;57.04;102471.97;4949548;28;123908;-71
2021/05/29 05:16:41;;;;;;;14.32;10.68;;;;;;;14.27;57.02;102477.06;4949607;28;119160;-72
2021/05/29 05:19:08;;;;;;;15.32;10.25;;;;;;;14.33;56.94;102471.53;4947181;28;119710;-72
2021/05/29 05:21:35;;;;;;;15.05;10.32;;;;;;;14.39;56.91;102479.31;4947438;28;124114;-72
2021/05/29 05:24:03;;;;;;;13.93;9.90;;;;;;;14.43;57.00;102478.31;4948528;28;125047;-72
2021/05/29 05:26:30;;;;;;;14.82;10.20;;;;;;;14.49;56.99;102478.06;4947476;28;118913;-73
2021/05/29 05:28:58;;;;;;;12.52;9.63;;;;;;;14.53;56.86;102479.69;4948302;28;119369;-72
2021/05/29 05:31:26;;;;;;;13.40;9.88;;;;;;;14.58;56.68;102476.91;4946686;28;123989;-72
2021/05/29 05:33:53;;;;;;;12.65;9.68;;;;;;;14.63;56.86;102479.41;4946784;28;124694;-72
2021/05/29 05:36:25;;;;;;;14.63;9.70;;;;;;;14.70;56.56;102480.94;4947522;28;118676;-73
2021/05/29 05:38:53;;;;;;;13.23;9.20;;;;;;;14.74;56.42;102477.22;4948260;28;119165;-72
2021/05/29 05:41:20;;;;;;;12.85;9.25;;;;;;;14.80;56.56;102493.00;4946943;28;124351;-72
2021/05/29 05:43:49;;;;;;;14.00;9.13;;;;;;;14.87;56.27;102483.00;4943086;28;124218;-73
2021/05/29 05:46:17;;;;;;;13.88;9.57;;;;;;;14.94;56.46;102490.72;4945585;28;120916;-72
2021/05/29 05:48:44;;;;;;;15.25;9.68;;;;;;;15.03;56.52;102493.94;4945698;28;119968;-72
2021/05/29 05:51:11;;;;;;;12.77;8.68;;;;;;;15.12;56.11;102498.94;4948025;28;124136;-72
2021/05/29 05:53:38;;;;;;;12.95;8.75;;;;;;;15.21;55.99;102503.94;4948423;28;124537;-72
2021/05/29 05:56:06;;;;;;;12.90;8.38;;;;;;;15.29;55.89;102501.84;4946422;28;119433;-72
2021/05/29 05:58:36;;;;;;;14.40;8.48;;;;;;;15.40;55.69;102508.59;4948680;28;118988;-72
2021/05/29 06:01:05;;;;;;;11.98;8.80;;;;;;;15.48;55.68;102506.47;4950646;28;124305;-71
2021/05/29 06:03:34;;;;;;;15.85;9.27;;;;;;;15.56;55.34;102509.72;4952932;28;123809;-71
2021/05/29 06:06:01;;;;;;;12.70;9.00;;;;;;;15.64;55.48;102512.97;4951547;28;120032;-71
2021/05/29 06:08:29;;;;;;;10.75;8.70;;;;;;;15.75;55.47;102518.78;4949082;28;119285;-71
2021/05/29 06:10:56;;;;;;;13.50;9.32;;;;;;;15.86;55.19;102522.81;4950095;28;122888;-71
2021/05/29 06:19:11;;;;;;;13.65;9.30;;;;;;;16.26;55.01;102521.19;4951541;28;118922;-71
2021/05/29 06:21:43;;;;;;;13.10;9.45;;;;;;;16.40;54.61;102513.44;4950024;28;124095;-71
2021/05/29 06:24:11;;;;;;;13.27;9.65;;;;;;;16.54;54.33;102521.72;4951722;28;124360;-72
2021/05/29 06:26:39;;;;;;;14.23;10.00;;;;;;;16.69;54.31;102524.69;4951014;28;118411;-72
2021/05/29 06:29:06;;;;;;;15.65;9.90;;;;;;;16.83;54.16;102522.28;4951228;28;118423;-72
2021/05/29 06:31:34;;;;;;;13.77;9.15;;;;;;;16.99;53.99;102532.31;4947842;28;124270;-72
2021/05/29 06:34:02;;;;;;;15.32;9.55;;;;;;;17.14;53.58;102531.63;4948840;28;124224;-71
2021/05/29 06:36:30;;;;;;;14.57;9.85;;;;;;;17.29;53.43;102536.28;4949470;28;120215;-71
2021/05/29 06:38:58;;;;;;;11.77;9.40;;;;;;;17.44;53.02;102540.06;4950034;28;119933;-71
2021/05/29 06:41:26;;;;;;;11.43;9.23;;;;;;;17.57;52.64;102536.78;4950040;28;123915;-71
2021/05/29 06:43:53;;;;;;;13.48;9.60;;;;;;;17.67;52.44;102541.63;4950490;28;124732;-71
2021/05/29 06:46:21;;;;;;;12.65;9.75;;;;;;;17.78;51.98;102542.91;4949415;28;119868;-72
2021/05/29 06:48:48;;;;;;;13.07;9.45;;;;;;;17.86;51.54;102546.16;4947761;28;119317;-71
2021/05/29 06:51:21;;;;;;;12.48;9.57;;;;;;;17.92;51.30;102545.84;4950356;28;123572;-71
2021/05/29 06:53:51;;;;;;;12.75;9.88;;;;;;;18.00;51.08;102543.63;4946649;28;124647;-70
2021/05/29 06:59:04;;;;;;;;;;;;;;;18.18;51.25;102549.06;4948928;28;119521;-69
2021/05/29 07:01:31;;;;;;;12.55;9.43;;;;;;;18.30;50.88;102537.69;4949125;28;123622;-70
2021/05/29 07:03:58;;;;;;;12.05;9.63;;;;;;;18.38;50.17;102548.03;4947375;28;124003;-70
2021/05/29 07:06:26;;;;;;;15.90;9.70;;;;;;;18.46;50.40;102540.47;4947011;28;118515;-70
2021/05/29 07:08:56;;;;;;;11.38;9.60;;;;;;;18.56;50.27;102546.25;4946015;28;118865;-70
2021/05/29 07:11:24;;;;;;;13.57;9.70;;;;;;;18.69;50.14;102547.34;4947280;28;124138;-70
2021/05/29 07:13:51;;;;;;;15.20;9.60;;;;;;;18.81;50.26;102540.47;4948390;28;124292;-70
2021/05/29 07:16:19;;;;;;;12.15;9.13;;;;;;;18.95;49.48;102542.41;4948476;28;119592;-70
2021/05/29 07:18:48;;;;;;;13.93;9.73;;;;;;;19.04;49.18;102547.31;4949379;28;119385;-71
2021/05/29 07:21:18;;;;;;;14.90;9.23;;;;;;;19.15;49.23;102544.91;4948780;28;123300;-71
2021/05/29 07:23:45;;;;;;;12.55;9.85;;;;;;;19.26;49.16;102542.50;4947476;28;123503;-71
2021/05/29 07:26:13;;;;;;;12.63;8.73;;;;;;;19.35;48.44;102542.97;4947614;28;120351;-71
2021/05/29 07:28:40;;;;;;;14.73;9.38;;;;;;;19.46;49.10;102548.63;4945710;28;120100;-72
2021/05/29 07:31:08;;;;;;;11.75;8.90;;;;;;;19.58;48.77;102542.53;4949990;28;125536;-71
2021/05/29 07:33:35;;;;;;;13.45;9.10;;;;;;;19.72;48.27;102543.59;4949479;28;124592;-72
2021/05/29 07:36:03;;;;;;;12.68;9.05;;;;;;;19.84;47.74;102542.94;4950255;28;119375;-71
2021/05/29 07:38:30;;;;;;;15.05;9.43;;;;;;;19.94;47.74;102549.50;4947702;28;119434;-72
2021/05/29 07:40:58;;;;;;;12.32;8.32;;;;;;;20.03;47.58;102554.34;4949871;28;123281;-72
2021/05/29 07:43:25;;;;;;;12.48;8.88;;;;;;;20.13;46.95;102553.81;4950462;28;123733;-71
2021/05/29 07:45:52;;;;;;;13.32;9.10;;;;;;;20.18;47.03;102551.75;4950666;28;119238;-71
2021/05/29 07:48:19;;;;;;;13.20;8.60;;;;;;;20.25;47.15;102558.50;4948234;28;119674;-70
2021/05/29 07:51:00;;;;;;;11.95;8.10;;;;;;;20.33;46.04;102550.84;4946568;28;125297;-72
2021/05/29 07:53:36;;;;;;;12.88;9.13;;;;;;;20.35;45.89;102554.28;4948727;28;124265;-71
2021/05/29 07:56:06;;;;;;;11.80;9.15;;;;;;;20.40;46.31;102560.28;4950077;28;120027;-72
2021/05/29 07:58:34;;;;;;;11.00;9.18;;;;;;;20.41;45.80;102559.31;4957316;23;118713;-70
2021/05/29 08:01:02;;;;;;;12.90;9.35;;;;;;;20.42;45.82;102554.81;4947829;28;123867;-68
2021/05/29 08:03:29;;;;;;;11.23;8.95;;;;;;;20.47;45.82;102559.91;4938144;28;122190;-68
2021/05/29 08:05:57;;;;;;;12.75;9.13;;;;;;;20.52;46.18;102560.50;4946449;28;119581;-69
2021/05/29 08:08:25;;;;;;;11.40;8.75;;;;;;;20.60;45.51;102560.94;4940312;28;118859;-74
2021/05/29 08:10:53;;;;;;;10.90;9.00;;;;;;;20.66;45.49;102563.25;4959021;28;123978;-73
2021/05/29 08:13:21;;;;;;;12.30;9.25;;;;;;;20.71;45.12;102558.47;4948540;28;123134;-73
2021/05/29 08:15:49;;;;;;;12.27;9.70;;;;;;;20.74;45.03;102566.38;4948351;28;120613;-73
2021/05/29 08:18:17;;;;;;;10.35;9.20;;;;;;;20.77;45.27;102566.16;4949656;28;120639;-73
2021/05/29 08:20:48;;;;;;;13.65;8.93;;;;;;;20.76;45.09;102569.84;4943540;28;123920;-73
2021/05/29 08:23:15;;;;;;;12.13;7.85;;;;;;;20.78;44.94;102577.81;4954724;28;124368;-73
2021/05/29 08:25:43;;;;;;;11.25;7.43;;;;;;;20.81;44.62;102572.22;4941542;28;119345;-73
2021/05/29 08:28:10;;;;;;;10.05;6.88;;;;;;;20.86;44.27;102571.97;4939894;28;118948;-74
2021/05/29 08:30:37;;;;;;;12.00;8.63;;;;;;;20.87;43.99;102565.59;4948961;28;123989;-69
2021/05/29 08:33:06;;;;;;;12.32;8.02;;;;;;;20.89;44.23;102569.06;4944879;28;123483;-69
2021/05/29 08:35:33;;;;;;;10.88;8.32;;;;;;;20.94;44.47;102575.91;4961028;28;119200;-69
2021/05/29 08:38:01;;;;;;;9.55;7.95;;;;;;;20.98;44.27;102574.78;4932491;28;119350;-69
2021/05/29 08:40:28;;;;;;;10.88;7.90;;;;;;;21.00;44.36;102572.84;4939857;28;123956;-71
2021/05/29 08:42:55;;;;;;;10.30;7.45;;;;;;;21.06;44.61;102577.00;4957751;28;122613;-70
2021/05/29 08:45:23;;;;;;;11.45;6.97;;;;;;;21.14;44.69;102574.69;4929339;28;118713;-69
2021/05/29 08:47:51;;;;;;;10.52;6.90;;;;;;;21.22;44.28;102581.44;4961095;28;119140;-70
2021/05/29 08:50:18;;;;;;;10.38;7.82;;;;;;;21.29;43.80;102577.38;4946052;28;123756;-70
2021/05/29 08:52:48;;;;;;;9.80;7.25;;;;;;;21.32;44.11;102578.06;4950157;28;122549;-69
2021/05/29 08:55:16;;;;;;;9.73;7.60;;;;;;;21.39;43.55;102573.13;4946008;28;119328;-70
2021/05/29 08:57:44;;;;;;;9.18;7.18;;;;;;;21.47;44.39;102581.63;4946873;28;118385;-70
2021/05/29 09:00:15;;;;;;;8.73;7.20;;;;;;;21.57;44.23;102585.47;4940780;28;124139;-70
2021/05/29 09:03:03;;;;;;;9.25;7.45;;;;;;;21.67;44.13;102587.59;4943358;28;124044;-70
2021/05/29 09:05:48;;;;;;;9.27;6.82;;;;;;;21.74;43.55;102591.63;4951789;28;119663;-70
2021/05/29 09:08:16;;;;;;;10.05;6.93;;;;;;;21.84;42.87;102595.44;4928122;28;120108;-70
2021/05/29 09:10:49;;;;;;;11.85;7.47;;;;;;;21.91;42.17;102586.00;4943078;28;123837;-70
2021/05/29 09:13:20;;;;;;;8.40;6.72;;;;;;;21.89;42.26;102598.72;4947295;28;123280;-70
2021/05/29 09:16:04;;;;;;;12.82;8.07;;;;;;;21.77;42.23;102588.72;4948899;28;119284;-70
2021/05/29 09:18:38;;;;;;;10.52;8.52;;;;;;;21.70;41.75;102592.78;4937077;28;119196;-70
2021/05/29 09:21:24;;;;;;;9.18;7.15;;;;;;;21.60;41.86;102592.50;4962686;28;123318;-70
2021/05/29 09:23:54;;;;;;;11.63;7.25;;;;;;;21.56;42.61;102586.44;4939411;28;124108;-70
2021/05/29 09:26:23;;;;;;;8.70;7.15;;;;;;;21.57;42.22;102588.19;4963345;28;117767;-70
2021/05/29 09:28:51;;;;;;;9.98;5.20;;;;;;;21.62;41.38;102589.72;4941872;28;119199;-70
2021/05/29 09:31:20;;;;;;;8.43;6.53;;;;;;;21.68;41.99;102595.59;4962655;28;123733;-70
2021/05/29 09:33:57;;;;;;;11.07;8.10;;;;;;;21.78;42.16;102598.56;4946708;28;124298;-70
2021/05/29 09:36:25;;;;;;;10.15;7.60;;;;;;;21.85;42.31;102594.50;4940730;28;118875;-70
2021/05/29 09:38:55;;;;;;;10.25;7.82;;;;;;;21.91;41.70;102602.19;4951028;28;118811;-70
2021/05/29 09:41:31;;;;;;;10.85;7.82;;;;;;;21.92;42.32;102614.69;4941784;28;124378;-70
2021/05/29 09:44:00;;;;;;;9.77;7.30;;;;;;;21.91;41.78;102602.19;4946486;28;123987;-70
2021/05/29 09:46:28;;;;;;;9.77;7.43;;;;;;;21.85;41.60;102597.19;4963005;28;119291;-70
2021/05/29 09:49:00;;;;;;;10.57;6.78;;;;;;;21.78;41.12;102602.09;4946055;28;119546;-70
2021/05/29 09:51:31;;;;;;;11.32;6.80;;;;;;;21.77;41.04;102599.50;4948719;28;123876;-70
2021/05/29 09:54:06;;;;;;;8.23;6.10;;;;;;;21.83;41.58;102604.53;4960414;28;123204;-70
2021/05/29 09:56:40;;;;;;;;;;;;;;;21.95;42.12;102592.91;4940890;28;121017;-70
2021/05/29 09:59:09;;;;;;;9.10;6.55;;;;;;;22.07;41.37;102606.56;4961567;28;119772;-70
2021/05/29 10:01:59;;;;;;;8.98;7.20;;;;;;;22.14;41.15;102597.09;4949945;28;124775;-70
2021/05/29 10:04:27;;;;;;;10.60;7.70;;;;;;;22.21;41.34;102592.16;4954264;28;123301;-70
2021/05/29 10:06:57;;;;;;;13.05;7.75;;;;;;;22.31;41.23;102594.16;4951326;28;119562;-70
2021/05/29 10:09:25;;;;;;;10.38;7.78;;;;;;;22.42;41.56;102600.69;4951484;28;120141;-70
2021/05/29 10:11:54;;;;;;;10.02;8.18;;;;;;;22.51;41.01;102594.69;4942426;28;124789;-70
2021/05/29 10:14:21;;;;;;;9.15;7.32;;;;;;;22.61;41.18;102590.38;4947012;28;124173;-70
2021/05/29 10:16:49;;;;;;;9.38;7.18;;;;;;;22.69;41.10;102597.94;4943664;28;119633;-70
2021/05/29 10:19:21;;;;;;;11.02;8.27;;;;;;;22.77;41.17;102594.72;4945365;28;119306;-70
2021/05/29 10:21:50;;;;;;;8.98;7.82;;;;;;;22.86;40.77;102594.06;4964818;28;123451;-70
2021/05/29 10:24:20;;;;;;;12.75;8.32;;;;;;;22.89;40.73;102593.88;4938029;28;123962;-70
2021/05/29 10:26:49;;;;;;;10.40;8.07;;;;;;;22.90;40.36;102595.59;4937028;28;119630;-70
2021/05/29 10:29:23;;;;;;;12.45;9.10;;;;;;;22.86;40.04;102600.34;4943837;28;119171;-70
2021/05/29 10:31:50;;;;;;;11.82;8.15;;;;;;;22.81;40.67;102604.31;4943424;28;124226;-70
2021/05/29 10:34:18;;;;;;;11.50;8.68;;;;;;;22.74;40.24;102604.75;4947663;28;123899;-70
2021/05/29 10:36:57;;;;;;;10.23;8.57;;;;;;;22.68;40.59;102602.50;4949781;28;120018;-70
2021/05/29 10:39:30;;;;;;;11.43;8.55;;;;;;;22.60;40.84;102599.44;4951472;28;119182;-69
2021/05/29 10:41:57;;;;;;;11.43;9.07;;;;;;;22.57;40.95;102605.06;4950684;28;124437;-70
2021/05/29 10:44:26;;;;;;;9.95;8.07;;;;;;;22.52;40.84;102597.25;4950835;28;123921;-70
2021/05/29 10:47:15;;;;;;;10.73;8.23;;;;;;;22.45;40.76;102597.78;4944624;28;120809;-70
2021/05/29 10:49:51;;;;;;;10.98;8.18;;;;;;;22.35;40.68;102593.00;4941064;28;119811;-70
2021/05/29 10:52:30;;;;;;;10.05;8.30;;;;;;;22.35;40.78;102600.22;4950937;28;124782;-70
2021/05/29 10:55:19;;;;;;;10.98;8.10;;;;;;;22.40;41.34;102597.25;4945021;28;124106;-69
2021/05/29 10:57:53;;;;;;;8.25;7.32;;;;;;;22.46;41.01;102594.13;4942692;28;118918;-70
2021/05/29 11:00:35;;;;;;;9.95;6.72;;;;;;;22.47;40.68;102593.13;4947403;28;119623;-70
2021/05/29 11:03:22;;;;;;;8.55;7.25;;;;;;;22.49;40.42;102596.59;4943256;28;124252;-70
2021/05/29 11:05:55;;;;;;;9.75;8.30;;;;;;;22.56;41.45;102592.50;4948997;28;124665;-70
2021/05/29 11:08:48;;;;;;;8.77;6.80;;;;;;;22.59;41.22;102592.31;4950184;28;119686;-70
2021/05/29 11:11:31;;;;;;;7.75;6.40;;;;;;;22.58;41.01;102587.88;4947036;28;118050;-70
2021/05/29 11:14:07;;;;;;;9.75;7.03;;;;;;;22.54;41.00;102586.34;4950866;28;123318;-70
2021/05/29 11:16:50;;;;;;;11.80;7.50;;;;;;;22.49;41.04;102585.78;4951348;28;127610;-70
2021/05/29 11:19:24;;;;;;;9.77;6.82;;;;;;;22.46;40.56;102586.03;4949372;28;119275;-70
2021/05/29 11:22:09;;;;;;;8.73;6.60;;;;;;;22.51;41.07;102578.47;4947946;28;119145;-70
2021/05/29 11:24:41;;;;;;;;;;;;;;;22.57;41.68;102588.84;4950895;28;124663;-70
2021/05/29 11:27:13;;;;;;;10.15;7.55;;;;;;;22.62;40.90;102586.72;4941302;28;124557;-71
2021/05/29 11:29:51;;;;;;;11.00;7.22;;;;;;;22.63;41.36;102585.72;4965290;28;118515;-70
2021/05/29 11:32:49;;;;;;;8.93;7.00;;;;;;;22.63;40.92;102587.56;4950514;28;119615;-70